Time,TemperatureF,DewpointF,PressureIn,WindDirection,WindDirectionDegrees,WindSpeedMPH,WindSpeedGustMPH,Humidity,HourlyPrecipIn,Conditions,Clouds,dailyrainin,SoftwareType,DateUTC
2013-09-30 00:02:00,48.3,47.0,30.03,SE,127,0.0,0.0,94,0.00,,,0.00,weatherlink.com 1.10,2013-09-30 04:02:00,
2013-09-30 00:17:00,48.1,47.0,30.02,SE,127,0.0,0.0,95,0.00,,,0.00,weatherlink.com 1.10,2013-09-30 04:17:00,
2013-09-30 00:32:00,47.8,47.0,30.02,SE,127,0.0,0.0,95,0.00,,,0.00,weatherlink.com 1.10,2013-09-30 04:32:00,
2013-09-30 00:47:00,47.5,46.0,30.02,SE,127,0.0,0.0,95,0.00,,,0.00,weatherlink.com 1.10,2013-09-30 04:47:00,
2013-09-30 01:02:00,47.3,46.0,30.02,SE,127,0.0,0.0,95,0.00,,,0.00,weatherlink.com 1.10,2013-09-30 05:02:00,
2013-09-30 01:17:00,47.3,46.0,30.02,SE,127,0.0,0.0,96,0.00,,,0.00,weatherlink.com 1.10,2013-09-30 05:17:00,
2013-09-30 01:32:00,47.1,46.0,30.02,SE,127,0.0,0.0,96,0.00,,,0.00,weatherlink.com 1.10,2013-09-30 05:32:00,
2013-09-30 01:47:00,46.8,46.0,30.02,SE,127,0.0,0.0,96,0.00,,,0.00,weatherlink.com 1.10,2013-09-30 05:47:00,
2013-09-30 02:02:00,46.5,46.0,30.02,SE,127,0.0,0.0,96,0.00,,,0.00,weatherlink.com 1.10,2013-09-30 06:02:00,
2013-09-30 02:17:00,46.4,45.0,30.02,SE,127,0.0,0.0,96,0.00,,,0.00,weatherlink.com 1.10,2013-09-30 06:17:00,
2013-09-30 02:32:00,46.2,45.0,30.02,SE,127,0.0,0.0,96,0.00,,,0.00,weatherlink.com 1.10,2013-09-30 06:32:00,
2013-09-30 02:47:00,46.0,45.0,30.02,SE,127,0.0,0.0,96,0.00,,,0.00,weatherlink.com 1.10,2013-09-30 06:47:00,
2013-09-30 03:02:00,45.8,45.0,30.01,SE,127,0.0,0.0,96,0.00,,,0.00,weatherlink.com 1.10,2013-09-30 07:02:00,
2013-09-30 03:17:00,45.7,45.0,30.01,SE,127,0.0,0.0,96,0.00,,,0.00,weatherlink.com 1.10,2013-09-30 07:17:00,
2013-09-30 03:32:00,45.4,44.0,30.02,SE,127,0.0,0.0,96,0.00,,,0.00,weatherlink.com 1.10,2013-09-30 07:32:00,
2013-09-30 03:47:00,45.1,44.0,30.02,SE,127,0.0,0.0,96,0.00,,,0.00,weatherlink.com 1.10,2013-09-30 07:47:00,
2013-09-30 04:02:00,44.9,44.0,30.02,SE,127,0.0,0.0,96,0.00,,,0.00,weatherlink.com 1.10,2013-09-30 08:02:00,
2013-09-30 04:18:00,44.7,44.0,30.02,SE,127,0.0,0.0,97,0.00,,,0.00,weatherlink.com 1.10,2013-09-30 08:18:00,
2013-09-30 04:33:00,44.6,44.0,30.02,SE,127,0.0,0.0,97,0.00,,,0.00,weatherlink.com 1.10,2013-09-30 08:33:00,
2013-09-30 04:48:00,44.5,44.0,30.02,SE,127,0.0,0.0,97,0.00,,,0.00,weatherlink.com 1.10,2013-09-30 08:48:00,
2013-09-30 05:03:00,44.3,44.0,30.02,SE,127,0.0,0.0,97,0.00,,,0.00,weatherlink.com 1.10,2013-09-30 09:03:00,
2013-09-30 05:18:00,44.3,44.0,30.03,SE,127,0.0,0.0,97,0.00,,,0.00,weatherlink.com 1.10,2013-09-30 09:18:00,
2013-09-30 05:33:00,44.3,44.0,30.02,SE,127,0.0,0.0,97,0.00,,,0.00,weatherlink.com 1.10,2013-09-30 09:33:00,
2013-09-30 05:48:00,44.3,44.0,30.02,SE,127,0.0,0.0,97,0.00,,,0.00,weatherlink.com 1.10,2013-09-30 09:48:00,
2013-09-30 06:03:00,44.0,43.0,30.03,SE,127,0.0,0.0,97,0.00,,,0.00,weatherlink.com 1.10,2013-09-30 10:03:00,
2013-09-30 06:18:00,43.8,43.0,30.03,SE,127,0.0,0.0,97,0.00,,,0.00,weatherlink.com 1.10,2013-09-30 10:18:00,
2013-09-30 06:33:00,43.6,43.0,30.03,SE,127,0.0,0.0,97,0.00,,,0.00,weatherlink.com 1.10,2013-09-30 10:33:00,
2013-09-30 06:48:00,43.4,43.0,30.03,SE,127,0.0,0.0,97,0.00,,,0.00,weatherlink.com 1.10,2013-09-30 10:48:00,
2013-09-30 07:03:00,43.1,42.0,30.04,SE,127,0.0,0.0,97,0.00,,,0.00,weatherlink.com 1.10,2013-09-30 11:03:00,
2013-09-30 07:18:00,43.1,42.0,30.04,SE,127,0.0,0.0,97,0.00,,,0.00,weatherlink.com 1.10,2013-09-30 11:18:00,
2013-09-30 07:33:00,43.2,43.0,30.04,SE,127,0.0,0.0,98,0.00,,,0.00,weatherlink.com 1.10,2013-09-30 11:33:00,
2013-09-30 07:48:00,43.6,43.0,30.04,SE,127,0.0,0.0,98,0.00,,,0.00,weatherlink.com 1.10,2013-09-30 11:48:00,
2013-09-30 08:03:00,44.8,44.0,30.04,SE,127,0.0,0.0,98,0.00,,,0.00,weatherlink.com 1.10,2013-09-30 12:03:00,
2013-09-30 08:18:00,47.1,47.0,30.05,SE,127,0.0,0.0,99,0.00,,,0.00,weatherlink.com 1.10,2013-09-30 12:18:00,
2013-09-30 08:33:00,50.4,50.0,30.05,SE,127,0.0,0.0,99,0.00,,,0.00,weatherlink.com 1.10,2013-09-30 12:33:00,
2013-09-30 08:48:00,52.8,53.0,30.05,SE,127,0.0,0.0,99,0.00,,,0.00,weatherlink.com 1.10,2013-09-30 12:48:00,
2013-09-30 09:03:00,54.7,53.0,30.05,NNW,343,0.0,0.0,95,0.00,,,0.00,weatherlink.com 1.10,2013-09-30 13:03:00,
2013-09-30 09:18:00,57.0,53.0,30.05,West,271,0.0,0.0,87,0.00,,,0.00,weatherlink.com 1.10,2013-09-30 13:18:00,
2013-09-30 09:33:00,59.0,54.0,30.05,West,281,0.0,0.0,82,0.00,,,0.00,weatherlink.com 1.10,2013-09-30 13:33:00,
2013-09-30 09:48:00,60.3,53.0,30.05,NW,326,0.0,0.0,78,0.00,,,0.00,weatherlink.com 1.10,2013-09-30 13:48:00,
2013-09-30 10:03:00,61.2,54.0,30.04,WNW,293,0.0,0.0,77,0.00,,,0.00,weatherlink.com 1.10,2013-09-30 14:03:00,
2013-09-30 10:18:00,64.3,55.0,30.04,East,81,0.0,0.0,73,0.00,,,0.00,weatherlink.com 1.10,2013-09-30 14:18:00,
2013-09-30 10:34:00,66.1,55.0,30.04,NE,54,0.0,0.0,67,0.00,,,0.00,weatherlink.com 1.10,2013-09-30 14:34:00,
2013-09-30 10:49:00,66.7,54.0,30.04,WNW,283,0.0,0.0,64,0.00,,,0.00,weatherlink.com 1.10,2013-09-30 14:49:00,
2013-09-30 11:04:00,68.0,54.0,30.03,SE,129,0.0,0.0,61,0.00,,,0.00,weatherlink.com 1.10,2013-09-30 15:04:00,
2013-09-30 11:19:00,69.0,56.0,30.03,North,350,0.0,0.0,63,0.00,,,0.00,weatherlink.com 1.10,2013-09-30 15:19:00,
2013-09-30 11:34:00,69.6,54.0,30.03,SW,227,0.0,0.0,59,0.00,,,0.00,weatherlink.com 1.10,2013-09-30 15:34:00,
2013-09-30 11:49:00,69.9,54.0,30.03,SW,233,0.0,0.0,58,0.00,,,0.00,weatherlink.com 1.10,2013-09-30 15:49:00,
2013-09-30 12:04:00,70.1,54.0,30.02,NNE,15,0.0,0.0,58,0.00,,,0.00,weatherlink.com 1.10,2013-09-30 16:04:00,
2013-09-30 12:19:00,71.7,55.0,30.01,NW,324,0.0,0.0,57,0.00,,,0.00,weatherlink.com 1.10,2013-09-30 16:19:00,
2013-09-30 12:34:00,71.5,54.0,30.01,NW,308,0.0,0.0,55,0.00,,,0.00,weatherlink.com 1.10,2013-09-30 16:34:00,
2013-09-30 12:49:00,72.2,55.0,30.01,SSE,158,0.0,0.0,56,0.00,,,0.00,weatherlink.com 1.10,2013-09-30 16:49:00,
2013-09-30 13:04:00,72.8,55.0,30.00,West,281,0.0,0.0,53,0.00,,,0.00,weatherlink.com 1.10,2013-09-30 17:04:00,
2013-09-30 13:19:00,73.2,54.0,29.99,WNW,302,0.0,0.0,52,0.00,,,0.00,weatherlink.com 1.10,2013-09-30 17:19:00,
2013-09-30 13:34:00,74.1,54.0,29.98,North,8,0.0,0.0,50,0.00,,,0.00,weatherlink.com 1.10,2013-09-30 17:34:00,
2013-09-30 13:49:00,75.2,55.0,29.98,ESE,104,0.0,0.0,50,0.00,,,0.00,weatherlink.com 1.10,2013-09-30 17:49:00,
2013-09-30 14:04:00,74.2,53.0,29.97,NNW,337,0.0,0.0,47,0.00,,,0.00,weatherlink.com 1.10,2013-09-30 18:04:00,
2013-09-30 14:19:00,74.7,53.0,29.96,WSW,242,0.0,0.0,47,0.00,,,0.00,weatherlink.com 1.10,2013-09-30 18:19:00,
2013-09-30 14:34:00,76.0,54.0,29.96,NNW,329,0.0,7.0,47,0.00,,,0.00,weatherlink.com 1.10,2013-09-30 18:34:00,
2013-09-30 14:49:00,76.4,53.0,29.95,North,8,0.0,1.0,45,0.00,,,0.00,weatherlink.com 1.10,2013-09-30 18:49:00,
2013-09-30 15:04:00,75.7,53.0,29.95,SW,222,0.0,2.0,46,0.00,,,0.00,weatherlink.com 1.10,2013-09-30 19:04:00,
2013-09-30 15:19:00,76.4,53.0,29.94,North,10,0.0,1.0,45,0.00,,,0.00,weatherlink.com 1.10,2013-09-30 19:19:00,
2013-09-30 15:34:00,76.4,53.0,29.93,South,175,0.0,5.0,44,0.00,,,0.00,weatherlink.com 1.10,2013-09-30 19:34:00,
2013-09-30 15:49:00,76.6,54.0,29.93,ENE,77,1.0,7.0,45,0.00,,,0.00,weatherlink.com 1.10,2013-09-30 19:49:00,
2013-09-30 16:19:00,77.7,55.0,29.93,NNE,25,3.0,5.0,45,0.00,,,0.00,weatherlink.com 1.10,2013-09-30 20:19:00,
2013-09-30 16:35:00,78.3,53.0,29.93,North,357,0.0,4.0,42,0.00,,,0.00,weatherlink.com 1.10,2013-09-30 20:35:00,
2013-09-30 16:50:00,77.8,54.0,29.93,NNE,27,1.0,6.0,44,0.00,,,0.00,weatherlink.com 1.10,2013-09-30 20:50:00,
2013-09-30 17:05:00,77.3,54.0,29.93,NNE,33,4.0,5.0,44,0.00,,,0.00,weatherlink.com 1.10,2013-09-30 21:05:00,
2013-09-30 17:20:00,76.5,54.0,29.93,NNW,327,1.0,3.0,45,0.00,,,0.00,weatherlink.com 1.10,2013-09-30 21:20:00,
2013-09-30 17:35:00,75.9,55.0,29.93,East,91,1.0,3.0,48,0.00,,,0.00,weatherlink.com 1.10,2013-09-30 21:35:00,
2013-09-30 17:50:00,75.0,54.0,29.93,NNE,33,3.0,6.0,48,0.00,,,0.00,weatherlink.com 1.10,2013-09-30 21:50:00,
2013-09-30 18:05:00,74.9,54.0,29.93,NE,44,0.0,6.0,48,0.00,,,0.00,weatherlink.com 1.10,2013-09-30 22:05:00,
2013-09-30 18:20:00,73.9,55.0,29.94,NE,46,3.0,5.0,51,0.00,,,0.00,weatherlink.com 1.10,2013-09-30 22:20:00,
2013-09-30 18:35:00,72.4,54.0,29.94,ENE,73,1.0,4.0,53,0.00,,,0.00,weatherlink.com 1.10,2013-09-30 22:35:00,
2013-09-30 18:50:00,70.3,55.0,29.94,East,98,1.0,2.0,59,0.00,,,0.00,weatherlink.com 1.10,2013-09-30 22:50:00,
2013-09-30 19:05:00,68.5,54.0,29.95,East,98,0.0,2.0,61,0.00,,,0.00,weatherlink.com 1.10,2013-09-30 23:05:00,
2013-09-30 19:20:00,66.4,55.0,29.95,East,98,0.0,0.0,66,0.00,,,0.00,weatherlink.com 1.10,2013-09-30 23:20:00,
2013-09-30 19:35:00,64.7,55.0,29.96,East,98,0.0,0.0,70,0.00,,,0.00,weatherlink.com 1.10,2013-09-30 23:35:00,
2013-09-30 19:50:00,63.1,54.0,29.96,East,98,0.0,0.0,73,0.00,,,0.00,weatherlink.com 1.10,2013-09-30 23:50:00,
2013-09-30 20:06:00,61.6,54.0,29.97,East,98,0.0,0.0,76,0.00,,,0.00,weatherlink.com 1.10,2013-10-01 00:06:00,
2013-09-30 20:20:00,60.7,54.0,29.97,East,98,0.0,0.0,79,0.00,,,0.00,weatherlink.com 1.10,2013-10-01 00:20:00,
2013-09-30 20:35:00,60.2,54.0,29.97,East,98,0.0,0.0,81,0.00,,,0.00,weatherlink.com 1.10,2013-10-01 00:35:00,
2013-09-30 20:50:00,59.9,54.0,29.98,East,98,0.0,0.0,82,0.00,,,0.00,weatherlink.com 1.10,2013-10-01 00:50:00,
2013-09-30 21:05:00,59.5,54.0,29.98,East,98,0.0,0.0,82,0.00,,,0.00,weatherlink.com 1.10,2013-10-01 01:05:00,
2013-09-30 21:20:00,59.0,54.0,29.98,East,98,0.0,0.0,84,0.00,,,0.00,weatherlink.com 1.10,2013-10-01 01:20:00,
2013-09-30 21:35:00,58.3,54.0,29.98,East,98,0.0,0.0,85,0.00,,,0.00,weatherlink.com 1.10,2013-10-01 01:35:00,
2013-09-30 21:50:00,57.7,54.0,29.98,East,98,0.0,0.0,86,0.00,,,0.00,weatherlink.com 1.10,2013-10-01 01:50:00,
2013-09-30 22:05:00,57.1,53.0,29.99,East,98,0.0,0.0,87,0.00,,,0.00,weatherlink.com 1.10,2013-10-01 02:05:00,
2013-09-30 22:20:00,56.6,54.0,29.98,East,98,0.0,0.0,89,0.00,,,0.00,weatherlink.com 1.10,2013-10-01 02:20:00,
2013-09-30 22:35:00,56.0,53.0,29.98,East,98,0.0,0.0,90,0.00,,,0.00,weatherlink.com 1.10,2013-10-01 02:35:00,
2013-09-30 22:50:00,55.5,53.0,29.98,East,98,0.0,0.0,90,0.00,,,0.00,weatherlink.com 1.10,2013-10-01 02:50:00,
2013-09-30 23:05:00,55.0,53.0,29.98,East,98,0.0,0.0,91,0.00,,,0.00,weatherlink.com 1.10,2013-10-01 03:05:00,
2013-09-30 23:20:00,54.6,52.0,29.98,East,98,0.0,0.0,92,0.00,,,0.00,weatherlink.com 1.10,2013-10-01 03:20:00,
2013-09-30 23:35:00,54.3,52.0,29.98,East,98,0.0,0.0,92,0.00,,,0.00,weatherlink.com 1.10,2013-10-01 03:35:00,
2013-09-30 23:50:00,54.0,52.0,29.98,East,98,0.0,0.0,93,0.00,,,0.00,weatherlink.com 1.10,2013-10-01 03:50:00,